Terminal Aerodrome Forecast
Issued by NWS

Home | Current Version | Previous Version | Text Only | Print | Product List | Glossary On
Versions: 1 2 3 4 5 6 7 8 9 10 11 12 13 14 15 16 17 18
369
FTUS45 KTFX 301130
TAFGTF
TAF
KGTF 301130Z 3012/3112 31010KT P6SM BKN120
     FM301700 32015G22KT P6SM SCT050 BKN080
     FM302000 32015G22KT P6SM VCSH SCT040 BKN070
      TEMPO 3020/3024 -SHRA BKN040
     FM310200 32008KT P6SM BKN120=

USA.gov is the U.S. government's official web portal to all federal, state and local government web resources and services.